createdAt,value
2018-08-30T00:00:48.259Z,930.10
2018-08-30T00:02:19.631Z,930.10
2018-08-30T00:03:51.204Z,930.10
2018-08-30T00:05:23.318Z,930.08
2018-08-30T00:06:54.649Z,930.08
2018-08-30T00:08:26.461Z,930.07
2018-08-30T00:09:57.492Z,930.13
2018-08-30T00:11:29.606Z,930.14
2018-08-30T00:13:00.739Z,930.14
2018-08-30T00:14:32.208Z,930.20
2018-08-30T00:16:03.780Z,930.15
2018-08-30T00:17:35.352Z,930.17
2018-08-30T00:19:07.175Z,930.16
2018-08-30T00:20:38.496Z,930.17
2018-08-30T00:22:10.070Z,930.19
2018-08-30T00:23:41.944Z,930.16
2018-08-30T00:25:13.313Z,930.13
2018-08-30T00:26:44.784Z,930.13
2018-08-30T00:28:16.897Z,930.12
2018-08-30T00:29:47.933Z,930.09
2018-08-30T00:31:19.600Z,930.08
2018-08-30T00:32:51.613Z,930.09
2018-08-30T00:34:22.645Z,930.08
2018-08-30T00:35:54.216Z,930.11
2018-08-30T00:37:26.138Z,930.08
2018-08-30T00:38:57.360Z,930.07
2018-08-30T00:40:28.931Z,930.04
2018-08-30T00:42:00.503Z,930.03
2018-08-30T00:43:32.175Z,930.00
2018-08-30T00:45:03.648Z,929.98
2018-08-30T00:46:35.218Z,930.04
2018-08-30T00:48:06.790Z,930.04
2018-08-30T00:49:38.462Z,929.99
2018-08-30T00:51:09.933Z,930.00
2018-08-30T00:52:42.249Z,929.95
2018-08-30T00:54:13.075Z,929.94
2018-08-30T00:55:44.998Z,929.94
2018-08-30T00:57:16.221Z,929.95
2018-08-30T00:58:47.790Z,929.94
2018-08-30T01:00:19.361Z,929.94
2018-08-30T01:01:51.033Z,929.89
2018-08-30T01:03:22.511Z,929.91
2018-08-30T01:04:54.080Z,929.91
2018-08-30T01:06:25.647Z,929.88
2018-08-30T01:07:57.219Z,929.90
2018-08-30T01:09:28.790Z,929.89
2018-08-30T01:11:00.362Z,929.92
2018-08-30T01:12:31.933Z,929.95
2018-08-30T01:14:03.705Z,929.92
2018-08-30T01:15:35.076Z,929.93
2018-08-30T01:17:06.647Z,929.93
2018-08-30T01:18:38.239Z,929.96
2018-08-30T01:20:09.891Z,929.94
2018-08-30T01:21:41.666Z,929.92
2018-08-30T01:23:12.933Z,929.93
2018-08-30T01:24:44.507Z,929.90
2018-08-30T01:26:16.177Z,929.92
2018-08-30T01:27:47.648Z,929.96
2018-08-30T01:29:19.220Z,929.96
2018-08-30T01:30:50.791Z,929.95
2018-08-30T01:32:22.663Z,929.91
2018-08-30T01:33:53.938Z,929.92
2018-08-30T01:35:25.506Z,929.93
2018-08-30T01:36:57.078Z,929.92
2018-08-30T01:38:28.950Z,929.91
2018-08-30T01:40:00.223Z,929.90
2018-08-30T01:41:31.799Z,929.87
2018-08-30T01:43:03.372Z,929.89
2018-08-30T01:44:35.037Z,929.89
2018-08-30T01:46:06.510Z,929.88
2018-08-30T01:47:38.081Z,929.89
2018-08-30T01:49:09.652Z,929.88
2018-08-30T01:50:41.475Z,929.84
2018-08-30T01:52:12.794Z,929.88
2018-08-30T01:53:44.367Z,929.87
2018-08-30T01:55:15.937Z,929.88
2018-08-30T01:56:47.612Z,929.87
2018-08-30T01:58:19.080Z,929.84
2018-08-30T01:59:50.651Z,929.91
2018-08-30T02:01:22.223Z,929.91
2018-08-30T02:02:53.895Z,929.89
2018-08-30T02:04:25.386Z,929.86
2018-08-30T02:05:56.937Z,929.86
2018-08-30T02:07:28.509Z,929.83
2018-08-30T02:09:00.482Z,929.82
2018-08-30T02:10:31.653Z,929.82
2018-08-30T02:12:03.224Z,929.83
2018-08-30T02:13:34.795Z,929.81
2018-08-30T02:15:06.467Z,929.83
2018-08-30T02:16:37.939Z,929.83
2018-08-30T02:18:09.512Z,929.81
2018-08-30T02:19:41.081Z,929.84
2018-08-30T02:21:12.655Z,929.87
2018-08-30T02:22:44.223Z,929.84
2018-08-30T02:24:15.796Z,929.88
2018-08-30T02:25:47.366Z,929.83
2018-08-30T02:27:19.189Z,929.83
2018-08-30T02:28:50.509Z,929.86
2018-08-30T02:30:22.096Z,929.79
2018-08-30T02:31:53.652Z,929.80
2018-08-30T02:33:25.325Z,929.79
2018-08-30T02:34:56.795Z,929.78
2018-08-30T02:36:28.365Z,929.77
2018-08-30T02:37:59.937Z,929.76
2018-08-30T02:39:31.809Z,929.80
2018-08-30T02:41:03.079Z,929.77
2018-08-30T02:42:34.649Z,929.78
2018-08-30T02:44:06.233Z,929.70
2018-08-30T02:45:37.992Z,929.74
2018-08-30T02:47:09.363Z,929.70
2018-08-30T02:48:40.934Z,929.69
2018-08-30T02:50:12.516Z,929.68
2018-08-30T02:51:44.180Z,929.62
2018-08-30T02:53:15.647Z,929.65
2018-08-30T02:54:47.221Z,929.62
2018-08-30T02:56:18.789Z,929.63
2018-08-30T02:57:50.659Z,929.64
2018-08-30T02:59:21.959Z,929.66
2018-08-30T03:00:53.501Z,929.65
2018-08-30T03:02:25.071Z,929.64
2018-08-30T03:05:28.463Z,929.67
2018-08-30T03:06:59.784Z,929.67
2018-08-30T03:08:31.355Z,929.67
2018-08-30T03:10:02.924Z,929.67
2018-08-30T03:11:34.840Z,929.64
2018-08-30T03:13:06.065Z,929.65
2018-08-30T03:14:37.639Z,929.59
2018-08-30T03:16:09.208Z,929.59
2018-08-30T03:17:41.385Z,929.56
2018-08-30T03:19:12.348Z,929.58
2018-08-30T03:20:44.470Z,929.52
2018-08-30T03:22:15.488Z,929.55
2018-08-30T03:23:47.761Z,929.54
2018-08-30T03:25:18.629Z,929.55
2018-08-30T03:26:50.236Z,929.51
2018-08-30T03:28:21.810Z,929.49
2018-08-30T03:29:53.439Z,929.47
2018-08-30T03:31:24.946Z,929.46
2018-08-30T03:32:56.495Z,929.46
2018-08-30T03:34:28.050Z,929.41
2018-08-30T03:35:59.721Z,929.45
2018-08-30T03:37:31.196Z,929.47
2018-08-30T03:39:02.792Z,929.48
2018-08-30T03:40:34.332Z,929.49
2018-08-30T03:42:06.053Z,929.49
2018-08-30T03:43:37.473Z,929.47
2018-08-30T03:45:09.044Z,929.43
2018-08-30T03:46:40.613Z,929.46
2018-08-30T03:48:12.285Z,929.44
2018-08-30T03:49:43.754Z,929.44
2018-08-30T03:51:15.325Z,929.46
2018-08-30T03:52:46.897Z,929.41
2018-08-30T03:54:18.466Z,929.43
2018-08-30T03:55:50.036Z,929.37
2018-08-30T03:57:21.606Z,929.39
2018-08-30T04:00:24.898Z,929.30
2018-08-30T04:01:56.318Z,929.29
2018-08-30T04:03:27.892Z,929.24
2018-08-30T04:06:31.130Z,929.16
2018-08-30T04:08:02.600Z,929.13
2018-08-30T04:09:34.171Z,929.10
2018-08-30T04:11:05.741Z,929.03
2018-08-30T04:12:37.415Z,929.02
2018-08-30T04:14:08.882Z,928.88
2018-08-30T04:15:40.655Z,928.91
2018-08-30T04:17:12.023Z,928.88
2018-08-30T04:18:43.845Z,928.87
2018-08-30T04:20:15.164Z,928.87
2018-08-30T04:21:46.735Z,928.92
2018-08-30T04:23:18.306Z,928.92
2018-08-30T04:24:49.876Z,928.84
2018-08-30T04:26:21.447Z,928.90
2018-08-30T04:27:53.018Z,928.89
2018-08-30T04:29:24.589Z,928.89
2018-08-30T04:30:56.159Z,928.92
2018-08-30T04:32:27.730Z,928.90
2018-08-30T04:33:59.300Z,928.94
2018-08-30T04:35:30.875Z,928.93
2018-08-30T04:37:02.592Z,928.90
2018-08-30T04:38:34.015Z,928.89
2018-08-30T04:40:05.585Z,928.83
2018-08-30T04:41:37.154Z,928.87
2018-08-30T04:43:08.725Z,928.95
2018-08-30T04:44:40.296Z,929.03
2018-08-30T04:46:11.866Z,928.95
2018-08-30T04:47:43.437Z,928.97
2018-08-30T04:49:15.110Z,928.98
2018-08-30T04:50:46.579Z,928.95
2018-08-30T04:52:18.154Z,929.01
2018-08-30T04:53:49.719Z,929.02
2018-08-30T04:55:21.440Z,929.02
2018-08-30T04:56:53.165Z,929.05
2018-08-30T04:58:24.431Z,929.05
2018-08-30T04:59:56.002Z,928.96
2018-08-30T05:01:27.775Z,928.87
2018-08-30T05:02:59.144Z,928.89
2018-08-30T05:04:30.714Z,928.87
2018-08-30T05:06:02.285Z,928.79
2018-08-30T05:07:33.956Z,928.83
2018-08-30T05:09:05.427Z,928.86
2018-08-30T05:10:36.997Z,928.85
2018-08-30T05:12:08.567Z,928.88
2018-08-30T05:13:40.540Z,928.83
2018-08-30T05:15:11.708Z,928.82
2018-08-30T05:16:43.282Z,928.88
2018-08-30T05:18:14.849Z,928.82
2018-08-30T05:19:46.523Z,928.77
2018-08-30T05:21:17.990Z,928.83
2018-08-30T05:22:49.561Z,928.80
2018-08-30T05:24:21.132Z,928.76
2018-08-30T05:25:52.702Z,928.81
2018-08-30T05:27:24.274Z,928.79
2018-08-30T05:28:55.843Z,928.80
2018-08-30T05:30:27.414Z,928.81
2018-08-30T05:31:59.084Z,928.70
2018-08-30T05:33:30.558Z,928.70
2018-08-30T05:35:02.126Z,928.75
2018-08-30T05:36:33.696Z,928.70
2018-08-30T05:38:05.367Z,928.71
2018-08-30T05:39:36.836Z,928.67
2018-08-30T05:41:08.407Z,928.62
2018-08-30T05:42:39.977Z,928.58
2018-08-30T05:44:11.547Z,928.61
2018-08-30T05:45:43.118Z,928.67
2018-08-30T05:47:14.688Z,928.60
2018-08-30T05:48:46.259Z,928.64
2018-08-30T05:50:17.979Z,928.68
2018-08-30T05:51:49.399Z,928.63
2018-08-30T05:53:20.970Z,928.60
2018-08-30T05:54:52.544Z,928.51
2018-08-30T05:56:24.117Z,928.58
2018-08-30T05:57:55.680Z,928.57
2018-08-30T05:59:27.251Z,928.55
2018-08-30T06:00:58.821Z,928.56
2018-08-30T06:02:30.420Z,928.46
2018-08-30T06:04:01.961Z,928.48
2018-08-30T06:05:33.537Z,928.50
2018-08-30T06:07:05.103Z,928.45
2018-08-30T06:08:36.924Z,928.48
2018-08-30T06:10:08.243Z,928.50
2018-08-30T06:11:39.813Z,928.48
2018-08-30T06:13:11.424Z,928.47
2018-08-30T06:14:43.254Z,928.45
2018-08-30T06:16:14.527Z,928.48
2018-08-30T06:17:46.094Z,928.44
2018-08-30T06:19:17.664Z,928.48
2018-08-30T06:20:49.334Z,928.46
2018-08-30T06:22:20.805Z,928.43
2018-08-30T06:23:52.374Z,928.42
2018-08-30T06:25:23.945Z,928.35
2018-08-30T06:26:55.727Z,928.38
2018-08-30T06:28:27.085Z,928.36
2018-08-30T06:29:58.654Z,928.38
2018-08-30T06:31:30.226Z,928.45
2018-08-30T06:33:02.336Z,928.43
2018-08-30T06:34:33.369Z,928.42
2018-08-30T06:36:04.935Z,928.44
2018-08-30T06:37:36.505Z,928.39
2018-08-30T06:39:08.176Z,928.36
2018-08-30T06:40:39.645Z,928.36
2018-08-30T06:42:11.217Z,928.38
2018-08-30T06:43:42.785Z,928.38
2018-08-30T06:45:14.756Z,928.39
2018-08-30T06:46:45.925Z,928.39
2018-08-30T06:48:17.500Z,928.39
2018-08-30T06:49:49.065Z,928.40
2018-08-30T06:51:20.735Z,928.37
2018-08-30T06:52:52.221Z,928.34
2018-08-30T06:54:23.775Z,928.36
2018-08-30T06:55:55.345Z,928.39
2018-08-30T06:57:26.915Z,928.35
2018-08-30T06:58:58.485Z,928.44
2018-08-30T07:00:30.055Z,928.44
2018-08-30T07:02:01.624Z,928.39
2018-08-30T07:03:33.348Z,928.42
2018-08-30T07:05:04.764Z,928.40
2018-08-30T07:06:36.334Z,928.36
2018-08-30T07:08:07.954Z,928.40
2018-08-30T07:09:39.579Z,928.36
2018-08-30T07:11:11.044Z,928.33
2018-08-30T07:12:42.613Z,928.43
2018-08-30T07:14:14.183Z,928.41
2018-08-30T07:15:46.055Z,928.43
2018-08-30T07:17:17.323Z,928.40
2018-08-30T07:18:48.893Z,928.36
2018-08-30T07:20:20.463Z,928.39
2018-08-30T07:21:52.232Z,928.37
2018-08-30T07:23:23.602Z,928.41
2018-08-30T07:24:55.176Z,928.45
2018-08-30T07:26:26.742Z,928.49
2018-08-30T07:27:58.412Z,928.48
2018-08-30T07:29:29.882Z,928.52
2018-08-30T07:31:01.452Z,928.50
2018-08-30T07:32:33.022Z,928.51
2018-08-30T07:34:04.673Z,928.46
2018-08-30T07:35:36.162Z,928.52
2018-08-30T07:37:07.733Z,928.48
2018-08-30T07:38:39.301Z,928.50
2018-08-30T07:40:11.075Z,928.49
2018-08-30T07:41:42.441Z,928.54
2018-08-30T07:43:14.011Z,928.45
2018-08-30T07:44:45.581Z,928.50
2018-08-30T07:46:17.451Z,928.45
2018-08-30T07:47:48.720Z,928.44
2018-08-30T07:49:20.293Z,928.50
2018-08-30T07:52:23.534Z,928.47
2018-08-30T07:53:55.001Z,928.43
2018-08-30T07:55:26.569Z,928.48
2018-08-30T07:56:58.139Z,928.52
2018-08-30T07:58:29.809Z,928.50
2018-08-30T08:00:01.401Z,928.51
2018-08-30T08:01:32.848Z,928.47
2018-08-30T08:03:04.417Z,928.50
2018-08-30T08:04:35.987Z,928.51
2018-08-30T08:06:07.597Z,928.51
2018-08-30T08:07:39.127Z,928.55
2018-08-30T08:09:10.696Z,928.53
2018-08-30T08:10:42.367Z,928.53
2018-08-30T08:12:13.835Z,928.57
2018-08-30T08:13:45.405Z,928.58
2018-08-30T08:15:16.975Z,928.62
2018-08-30T08:16:48.948Z,928.66
2018-08-30T08:18:20.114Z,928.72
2018-08-30T08:19:51.684Z,928.75
2018-08-30T08:21:23.253Z,928.77
2018-08-30T08:22:54.924Z,928.74
2018-08-30T08:24:26.878Z,928.79
2018-08-30T08:29:02.284Z,928.83
2018-08-30T08:30:32.675Z,928.88
2018-08-30T08:32:04.729Z,928.89
2018-08-30T08:33:36.297Z,928.86
2018-08-30T08:35:08.060Z,928.87
2018-08-30T08:36:39.552Z,928.88
2018-08-30T08:38:11.357Z,928.88
2018-08-30T08:41:14.855Z,928.93
2018-08-30T08:42:45.827Z,928.97
2018-08-30T08:44:17.000Z,928.98
2018-08-30T08:45:48.861Z,928.99
2018-08-30T08:47:20.647Z,928.98
2018-08-30T08:50:26.598Z,929.03
2018-08-30T08:51:55.800Z,929.03
2018-08-30T08:53:27.242Z,929.00
2018-08-30T08:54:58.435Z,929.00
2018-08-30T08:56:30.212Z,929.02
2018-08-30T08:58:01.430Z,929.04
2018-08-30T08:59:32.973Z,929.09
2018-08-30T09:01:05.068Z,929.09
2018-08-30T09:02:36.919Z,929.09
2018-08-30T09:04:08.024Z,929.07
2018-08-30T09:05:39.577Z,929.05
2018-08-30T09:07:11.621Z,929.05
2018-08-30T09:08:42.724Z,929.05
2018-08-30T09:10:13.946Z,929.04
2018-08-30T09:11:45.968Z,929.03
2018-08-30T09:13:17.379Z,929.05
2018-08-30T09:14:48.190Z,929.06
2018-08-30T09:16:19.759Z,929.10
2018-08-30T09:17:51.637Z,929.06
2018-08-30T09:19:22.897Z,929.11
2018-08-30T09:22:26.037Z,929.12
2018-08-30T09:23:57.709Z,929.09
2018-08-30T09:25:29.175Z,929.14
2018-08-30T09:27:00.778Z,929.17
2018-08-30T09:28:32.313Z,929.21
2018-08-30T09:30:03.983Z,929.19
2018-08-30T09:31:35.453Z,929.13
2018-08-30T09:33:07.026Z,929.15
2018-08-30T09:34:38.591Z,929.15
2018-08-30T09:36:10.161Z,929.13
2018-08-30T09:37:41.731Z,929.10
2018-08-30T09:39:13.746Z,929.08
2018-08-30T09:40:45.827Z,929.15
2018-08-30T09:42:16.562Z,929.18
2018-08-30T09:43:48.046Z,929.14
2018-08-30T09:45:19.582Z,929.14
2018-08-30T09:46:51.659Z,929.10
2018-08-30T09:48:22.973Z,929.17
2018-08-30T09:52:57.846Z,929.19
2018-08-30T09:54:30.283Z,929.18
2018-08-30T09:57:33.102Z,929.16
2018-08-30T10:00:37.232Z,929.22
2018-08-30T10:02:06.866Z,929.21
2018-08-30T10:03:39.246Z,929.24
2018-08-30T10:06:42.290Z,929.24
2018-08-30T10:08:13.155Z,929.28
2018-08-30T10:09:45.999Z,929.29
2018-08-30T10:11:17.320Z,929.28
2018-08-30T10:12:48.711Z,929.32
2018-08-30T10:15:51.397Z,929.43
2018-08-30T10:17:22.592Z,929.42
2018-08-30T10:18:55.375Z,929.43
2018-08-30T10:20:26.044Z,929.44
2018-08-30T10:21:57.365Z,929.41
2018-08-30T10:23:29.118Z,929.37
2018-08-30T10:25:00.917Z,929.48
2018-08-30T10:28:04.197Z,929.43
2018-08-30T10:29:35.690Z,929.45
2018-08-30T10:31:07.192Z,929.43
2018-08-30T10:32:38.360Z,929.50
2018-08-30T10:34:09.907Z,929.52
2018-08-30T10:35:42.087Z,929.52
2018-08-30T10:37:13.952Z,929.53
2018-08-30T10:38:45.327Z,929.55
2018-08-30T10:40:16.208Z,929.58
2018-08-30T10:41:48.416Z,929.58
2018-08-30T10:43:20.063Z,929.61
2018-08-30T10:44:52.167Z,929.65
2018-08-30T10:46:23.316Z,929.61
2018-08-30T10:47:54.575Z,929.61
2018-08-30T10:49:26.507Z,929.63
2018-08-30T10:50:58.769Z,929.66
2018-08-30T10:52:29.641Z,929.65
2018-08-30T10:54:01.245Z,929.58
2018-08-30T10:55:33.376Z,929.62
2018-08-30T10:57:05.114Z,929.66
2018-08-30T10:58:37.286Z,929.69
2018-08-30T11:00:06.949Z,929.67
2018-08-30T11:01:39.744Z,929.69
2018-08-30T11:03:11.974Z,929.73
2018-08-30T11:04:42.766Z,929.74
2018-08-30T11:06:13.300Z,929.71
2018-08-30T11:07:47.283Z,929.74
2018-08-30T11:10:48.601Z,929.74
2018-08-30T11:12:21.575Z,929.66
2018-08-30T11:13:52.606Z,929.70
2018-08-30T11:15:24.618Z,929.71
2018-08-30T11:18:25.980Z,929.73
2018-08-30T11:19:58.091Z,929.70
2018-08-30T11:21:30.253Z,929.73
2018-08-30T11:23:01.760Z,929.79
2018-08-30T11:24:32.821Z,929.75
2018-08-30T11:26:04.949Z,929.78
2018-08-30T11:27:36.071Z,929.81
2018-08-30T11:29:07.232Z,929.79
2018-08-30T11:30:39.198Z,929.81
2018-08-30T11:32:11.131Z,929.82
2018-08-30T11:33:43.229Z,929.82
2018-08-30T11:35:13.863Z,929.93
2018-08-30T11:36:44.770Z,929.96
2018-08-30T11:38:17.687Z,929.94
2018-08-30T11:39:47.927Z,929.95
2018-08-30T11:41:19.582Z,929.96
2018-08-30T11:42:50.950Z,929.98
2018-08-30T11:44:22.869Z,929.98
2018-08-30T11:45:54.039Z,929.88
2018-08-30T11:47:25.941Z,929.83
2018-08-30T11:48:57.633Z,929.89
2018-08-30T11:50:32.009Z,929.84
2018-08-30T11:52:00.362Z,929.89
2018-08-30T11:53:33.266Z,929.94
2018-08-30T11:55:04.180Z,929.93
2018-08-30T11:56:36.054Z,929.96
2018-08-30T11:58:07.914Z,929.93
2018-08-30T11:59:40.429Z,929.99
2018-08-30T12:01:10.451Z,929.97
2018-08-30T12:02:42.911Z,930.03
2018-08-30T12:04:14.099Z,929.99
2018-08-30T12:05:45.285Z,930.06
2018-08-30T12:07:19.251Z,929.97
2018-08-30T12:08:48.988Z,929.94
2018-08-30T12:11:54.761Z,930.00
2018-08-30T12:14:55.647Z,929.98
2018-08-30T12:16:27.795Z,929.94
2018-08-30T12:17:58.215Z,929.96
2018-08-30T12:19:29.531Z,929.96
2018-08-30T12:21:02.241Z,929.99
2018-08-30T12:22:34.540Z,929.98
2018-08-30T12:24:05.436Z,930.02
2018-08-30T12:25:37.433Z,930.02
2018-08-30T12:27:08.549Z,930.03
2018-08-30T12:28:42.136Z,929.98
2018-08-30T12:30:13.265Z,929.98
2018-08-30T12:33:17.494Z,929.99
2018-08-30T12:34:45.756Z,929.98
2018-08-30T12:36:18.235Z,929.99
2018-08-30T12:39:24.115Z,929.92
2018-08-30T12:40:52.409Z,929.97
2018-08-30T12:43:55.802Z,929.97
2018-08-30T12:45:27.408Z,929.98
2018-08-30T12:47:00.167Z,929.98
2018-08-30T12:48:31.144Z,929.97
2018-08-30T12:50:01.953Z,929.99
2018-08-30T12:51:33.566Z,929.97
2018-08-30T12:54:37.592Z,929.98
2018-08-30T12:56:09.511Z,930.00
2018-08-30T12:57:40.251Z,929.95
2018-08-30T12:59:11.842Z,929.98
2018-08-30T13:00:47.421Z,929.94
2018-08-30T13:02:14.593Z,929.96
2018-08-30T13:05:17.480Z,929.92
2018-08-30T13:12:58.257Z,929.93
2018-08-30T13:14:26.645Z,929.94
2018-08-30T13:15:58.744Z,929.87
2018-08-30T13:17:30.453Z,929.95
2018-08-30T13:19:01.650Z,929.84
2018-08-30T13:20:34.243Z,929.85
2018-08-30T13:22:04.391Z,929.87
2018-08-30T13:23:36.911Z,929.79
2018-08-30T13:25:10.955Z,929.81
2018-08-30T13:26:40.481Z,929.82
2018-08-30T13:29:47.683Z,929.77
2018-08-30T13:31:15.688Z,929.76
2018-08-30T13:32:46.302Z,929.75
2018-08-30T13:34:18.392Z,929.75
2018-08-30T13:37:20.514Z,929.69
2018-08-30T13:45:01.541Z,929.55
2018-08-30T13:46:31.468Z,929.52
2018-08-30T13:48:01.955Z,929.49
2018-08-30T13:51:05.141Z,929.52
2018-08-30T13:52:37.080Z,929.43
2018-08-30T13:54:07.936Z,929.40
2018-08-30T13:55:40.085Z,929.37
2018-08-30T13:58:43.904Z,929.35
2018-08-30T14:03:17.337Z,929.29
2018-08-30T14:04:50.532Z,929.20
2018-08-30T14:06:20.662Z,929.25
2018-08-30T14:07:52.155Z,929.20
2018-08-30T14:09:25.015Z,929.21
2018-08-30T14:10:55.708Z,929.17
2018-08-30T14:12:27.044Z,929.16
2018-08-30T14:13:58.903Z,929.11
2018-08-30T14:15:31.246Z,929.12
2018-08-30T14:17:01.499Z,929.08
2018-08-30T14:18:33.159Z,929.13
2018-08-30T14:20:04.975Z,929.03
2018-08-30T14:21:36.822Z,928.98
2018-08-30T14:23:07.409Z,929.01
2018-08-30T14:24:39.367Z,928.96
2018-08-30T14:26:10.875Z,928.93
2018-08-30T14:27:42.378Z,928.93
2018-08-30T14:30:45.201Z,928.92
2018-08-30T14:33:49.117Z,928.81
2018-08-30T14:35:20.236Z,928.76
2018-08-30T14:36:52.232Z,928.77
2018-08-30T14:38:23.852Z,928.73
2018-08-30T14:41:27.071Z,928.74
2018-08-30T14:42:58.053Z,928.68
2018-08-30T14:44:29.733Z,928.62
2018-08-30T14:46:01.041Z,928.63
2018-08-30T14:47:33.018Z,928.64
2018-08-30T14:49:04.157Z,928.63
2018-08-30T14:50:36.535Z,928.58
2018-08-30T14:52:07.379Z,928.62
2018-08-30T14:53:39.103Z,928.68
2018-08-30T14:55:10.914Z,928.56
2018-08-30T14:56:43.428Z,928.60
2018-08-30T14:58:13.710Z,928.57
2018-08-30T14:59:47.227Z,928.70
2018-08-30T15:01:18.296Z,928.43
2018-08-30T15:02:48.722Z,928.71
2018-08-30T15:04:19.999Z,928.66
2018-08-30T15:05:51.748Z,928.70
2018-08-30T15:07:23.106Z,928.85
2018-08-30T15:08:55.114Z,928.68
2018-08-30T15:10:26.316Z,928.42
2018-08-30T15:11:57.959Z,928.50
2018-08-30T15:13:29.634Z,928.28
2018-08-30T15:15:02.085Z,928.36
2018-08-30T15:16:33.413Z,928.29
2018-08-30T15:18:05.147Z,928.34
2018-08-30T15:19:36.379Z,928.37
2018-08-30T15:21:07.883Z,928.34
2018-08-30T15:22:39.808Z,928.26
2018-08-30T15:24:11.324Z,928.16
2018-08-30T15:25:42.791Z,928.18
2018-08-30T15:27:14.439Z,928.15
2018-08-30T15:31:55.999Z,928.00
2018-08-30T15:36:37.175Z,928.18
2018-08-30T15:37:55.632Z,928.13
2018-08-30T15:39:27.237Z,928.09
2018-08-30T15:40:58.707Z,927.98
2018-08-30T15:42:30.187Z,927.99
2018-08-30T15:44:01.190Z,927.85
2018-08-30T15:45:32.777Z,927.80
2018-08-30T15:47:04.440Z,927.81
2018-08-30T15:48:36.139Z,927.80
2018-08-30T15:50:07.537Z,927.70
2018-08-30T15:51:39.378Z,927.62
2018-08-30T15:53:10.728Z,927.62
2018-08-30T15:54:42.513Z,927.57
2018-08-30T15:56:13.827Z,927.64
2018-08-30T15:57:45.413Z,927.64
2018-08-30T15:59:17.598Z,927.59
2018-08-30T16:02:20.471Z,927.57
2018-08-30T16:05:23.404Z,927.47
2018-08-30T16:06:54.938Z,927.43
2018-08-30T16:09:58.709Z,927.26
2018-08-30T16:11:30.197Z,927.31
2018-08-30T16:13:01.345Z,927.12
2018-08-30T16:14:33.066Z,927.10
2018-08-30T16:16:04.453Z,927.13
2018-08-30T16:17:36.239Z,927.08
2018-08-30T16:25:13.974Z,927.04
2018-08-30T16:26:45.570Z,927.06
2018-08-30T16:28:17.251Z,926.98
2018-08-30T16:29:49.387Z,926.98
2018-08-30T16:31:20.620Z,926.94
2018-08-30T16:32:52.114Z,926.90
2018-08-30T16:34:24.005Z,926.86
2018-08-30T16:35:55.389Z,926.80
2018-08-30T16:37:27.227Z,926.81
2018-08-30T16:38:58.261Z,926.84
2018-08-30T16:40:30.150Z,926.84
2018-08-30T16:42:01.639Z,926.78
2018-08-30T16:43:33.331Z,926.64
2018-08-30T16:45:04.616Z,926.63
2018-08-30T16:48:07.908Z,926.74
2018-08-30T16:51:10.962Z,926.63
2018-08-30T16:52:42.751Z,926.63
2018-08-30T16:55:45.973Z,926.55
2018-08-30T16:57:17.309Z,926.59
2018-08-30T16:58:49.125Z,926.52
2018-08-30T17:00:20.685Z,926.44
2018-08-30T17:01:52.170Z,926.43
2018-08-30T17:03:23.960Z,926.39
2018-08-30T17:04:55.851Z,926.48
2018-08-30T17:06:26.884Z,926.47
2018-08-30T17:09:30.616Z,926.49
2018-08-30T17:11:01.591Z,926.49
2018-08-30T17:12:33.483Z,926.46
2018-08-30T17:14:04.765Z,926.44
2018-08-30T17:15:36.553Z,926.38
2018-08-30T17:17:07.958Z,926.38
2018-08-30T17:20:11.113Z,926.26
2018-08-30T17:24:46.225Z,926.25
2018-08-30T17:26:18.017Z,926.31
2018-08-30T17:27:50.195Z,926.31
2018-08-30T17:29:20.646Z,926.33
2018-08-30T17:30:52.681Z,926.15
2018-08-30T17:32:24.155Z,926.21
2018-08-30T17:33:55.401Z,926.20
2018-08-30T17:35:27.089Z,926.10
2018-08-30T17:36:59.312Z,925.96
2018-08-30T17:38:30.384Z,925.99
2018-08-30T17:40:03.447Z,925.98
2018-08-30T17:41:34.167Z,926.04
2018-08-30T17:43:05.298Z,926.03
2018-08-30T17:44:36.549Z,926.00
2018-08-30T17:46:08.381Z,925.92
2018-08-30T17:47:39.662Z,925.89
2018-08-30T17:49:11.348Z,925.95
2018-08-30T17:50:42.873Z,925.94
2018-08-30T17:52:14.709Z,925.89
2018-08-30T17:55:17.998Z,925.75
2018-08-30T17:56:49.526Z,925.82
2018-08-30T17:58:21.130Z,925.75
2018-08-30T17:59:52.341Z,925.76
2018-08-30T18:01:24.372Z,925.84
2018-08-30T18:02:55.714Z,925.80
2018-08-30T18:04:27.400Z,925.76
2018-08-30T18:05:58.723Z,925.78
2018-08-30T18:09:02.594Z,925.77
2018-08-30T18:10:33.740Z,925.80
2018-08-30T18:12:05.023Z,925.83
2018-08-30T18:13:37.027Z,925.84
2018-08-30T18:15:08.294Z,925.77
2018-08-30T18:23:33.651Z,925.59
2018-08-30T18:25:04.927Z,925.57
2018-08-30T18:26:36.800Z,925.66
2018-08-30T18:28:08.425Z,925.72
2018-08-30T18:29:39.886Z,925.79
2018-08-30T18:31:11.571Z,925.77
2018-08-30T18:32:42.855Z,925.70
2018-08-30T18:34:14.445Z,925.66
2018-08-30T18:35:46.101Z,925.66
2018-08-30T18:38:49.609Z,925.60
2018-08-30T18:40:20.882Z,925.59
2018-08-30T18:41:52.911Z,925.61
2018-08-30T18:43:23.957Z,925.55
2018-08-30T18:44:55.777Z,925.57
2018-08-30T18:46:27.113Z,925.58
2018-08-30T18:47:59.103Z,925.55
2018-08-30T18:49:30.333Z,925.57
2018-08-30T18:51:03.087Z,925.52
2018-08-30T18:52:33.503Z,925.52
2018-08-30T18:54:05.587Z,925.52
2018-08-30T18:55:36.681Z,925.52
2018-08-30T18:57:08.307Z,925.51
2018-08-30T18:58:39.785Z,925.50
2018-08-30T19:01:43.016Z,925.61
2018-08-30T19:03:14.806Z,925.55
2018-08-30T19:04:46.122Z,925.58
2018-08-30T19:06:17.908Z,925.63
2018-08-30T19:09:22.022Z,925.61
2018-08-30T19:10:52.456Z,925.59
2018-08-30T19:12:24.880Z,925.56
2018-08-30T19:13:55.907Z,925.51
2018-08-30T19:15:27.306Z,925.56
2018-08-30T19:16:58.787Z,925.58
2018-08-30T19:18:30.369Z,925.51
2018-08-30T19:20:01.953Z,925.51
2018-08-30T19:23:05.570Z,925.43
2018-08-30T19:27:40.005Z,925.44
2018-08-30T19:29:11.549Z,925.46
2018-08-30T19:30:43.031Z,925.47
2018-08-30T19:33:47.142Z,925.41
2018-08-30T19:35:17.878Z,925.47
2018-08-30T19:38:22.098Z,925.51
2018-08-30T19:39:56.577Z,925.47
2018-08-30T19:41:24.663Z,925.46
2018-08-30T19:44:27.278Z,925.49
2018-08-30T19:45:58.854Z,925.44
2018-08-30T19:47:30.538Z,925.48
2018-08-30T19:49:02.220Z,925.48
2018-08-30T19:50:33.600Z,925.45
2018-08-30T19:52:05.182Z,925.48
2018-08-30T19:53:36.863Z,925.48
2018-08-30T19:55:08.344Z,925.53
2018-08-30T19:56:39.932Z,925.49
2018-08-30T19:58:11.507Z,925.47
2018-08-30T19:59:43.240Z,925.51
2018-08-30T20:01:14.671Z,925.49
2018-08-30T20:02:46.795Z,925.47
2018-08-30T20:04:17.834Z,925.49
2018-08-30T20:05:49.517Z,925.50
2018-08-30T20:07:20.995Z,925.52
2018-08-30T20:08:52.583Z,925.55
2018-08-30T20:10:24.376Z,925.53
2018-08-30T20:11:55.845Z,925.54
2018-08-30T20:13:27.323Z,925.51
2018-08-30T20:16:30.482Z,925.53
2018-08-30T20:18:02.263Z,925.52
2018-08-30T20:19:34.288Z,925.51
2018-08-30T20:21:05.808Z,925.54
2018-08-30T20:22:36.898Z,925.52
2018-08-30T20:24:08.689Z,925.56
2018-08-30T20:27:11.547Z,925.57
2018-08-30T20:28:43.329Z,925.57
2018-08-30T20:30:14.813Z,925.54
2018-08-30T20:31:46.287Z,925.56
2018-08-30T20:33:17.868Z,925.55
2018-08-30T20:34:49.446Z,925.55
2018-08-30T20:36:21.270Z,925.57
2018-08-30T20:37:52.809Z,925.58
2018-08-30T20:39:24.198Z,925.61
2018-08-30T20:40:56.308Z,925.59
2018-08-30T20:42:27.445Z,925.62
2018-08-30T20:43:58.926Z,925.56
2018-08-30T20:45:30.505Z,925.63
2018-08-30T20:47:02.100Z,925.56
2018-08-30T20:48:33.667Z,925.59
2018-08-30T20:50:05.240Z,925.62
2018-08-30T20:51:37.123Z,925.60
2018-08-30T20:53:08.399Z,925.64
2018-08-30T20:54:40.178Z,925.65
2018-08-30T20:56:11.555Z,925.69
2018-08-30T20:57:43.133Z,925.69
2018-08-30T20:59:14.727Z,925.71
2018-08-30T21:00:46.391Z,925.70